sensor_id;sensor_type;location;lat;lon;timestamp;pressure;altitude;pressure_sealevel;temperature;humidity
68456;BME280;55437;55.046;38.838;2023-02-07T00:00:41;101770.06;;;-0.02;57.00
68456;BME280;55437;55.046;38.838;2023-02-07T00:03:07;101767.25;;;-0.08;56.89
68456;BME280;55437;55.046;38.838;2023-02-07T00:05:33;101774.41;;;0.03;56.49
68456;BME280;55437;55.046;38.838;2023-02-07T00:08:03;101770.22;;;0.03;56.79
68456;BME280;55437;55.046;38.838;2023-02-07T00:10:29;101772.09;;;0.07;56.34
68456;BME280;55437;55.046;38.838;2023-02-07T00:12:55;101775.16;;;0.00;56.37
68456;BME280;55437;55.046;38.838;2023-02-07T00:15:20;101773.59;;;-0.17;56.78
68456;BME280;55437;55.046;38.838;2023-02-07T00:17:46;101774.19;;;-0.23;56.63
68456;BME280;55437;55.046;38.838;2023-02-07T00:20:12;101776.38;;;-0.30;56.69
68456;BME280;55437;55.046;38.838;2023-02-07T00:22:37;101764.94;;;-0.22;56.55
68456;BME280;55437;55.046;38.838;2023-02-07T00:25:04;101767.09;;;-0.31;56.78
68456;BME280;55437;55.046;38.838;2023-02-07T00:27:30;101772.53;;;-0.42;57.06
68456;BME280;55437;55.046;38.838;2023-02-07T00:29:55;101765.16;;;-0.56;57.19
68456;BME280;55437;55.046;38.838;2023-02-07T00:32:21;101769.25;;;-0.58;57.19
68456;BME280;55437;55.046;38.838;2023-02-07T00:34:47;101772.78;;;-0.55;57.01
68456;BME280;55437;55.046;38.838;2023-02-07T00:37:15;101777.78;;;-0.56;57.01
68456;BME280;55437;55.046;38.838;2023-02-07T00:39:41;101770.66;;;-0.46;56.63
68456;BME280;55437;55.046;38.838;2023-02-07T00:42:07;101774.75;;;-0.49;56.39
68456;BME280;55437;55.046;38.838;2023-02-07T00:44:33;101777.31;;;-0.67;56.88
68456;BME280;55437;55.046;38.838;2023-02-07T00:46:59;101787.47;;;-0.65;56.84
68456;BME280;55437;55.046;38.838;2023-02-07T00:49:24;101786.59;;;-0.66;56.64
68456;BME280;55437;55.046;38.838;2023-02-07T00:51:50;101784.94;;;-0.65;56.65
68456;BME280;55437;55.046;38.838;2023-02-07T00:54:16;101795.97;;;-0.63;56.36
68456;BME280;55437;55.046;38.838;2023-02-07T00:56:42;101793.03;;;-0.73;56.29
68456;BME280;55437;55.046;38.838;2023-02-07T00:59:08;101788.78;;;-0.74;56.88
68456;BME280;55437;55.046;38.838;2023-02-07T01:01:34;101791.25;;;-0.93;56.78
68456;BME280;55437;55.046;38.838;2023-02-07T01:04:00;101786.31;;;-1.09;57.18
68456;BME280;55437;55.046;38.838;2023-02-07T01:06:26;101791.41;;;-1.08;57.04
68456;BME280;55437;55.046;38.838;2023-02-07T01:08:58;101784.94;;;-1.02;57.02
68456;BME280;55437;55.046;38.838;2023-02-07T01:11:26;101794.78;;;-0.89;56.46
68456;BME280;55437;55.046;38.838;2023-02-07T01:13:53;101796.72;;;-0.84;56.35
68456;BME280;55437;55.046;38.838;2023-02-07T01:16:26;101808.59;;;-0.81;56.29
68456;BME280;55437;55.046;38.838;2023-02-07T01:18:52;101806.97;;;-0.98;56.57
68456;BME280;55437;55.046;38.838;2023-02-07T01:21:21;101803.31;;;-1.05;56.90
68456;BME280;55437;55.046;38.838;2023-02-07T01:23:47;101810.44;;;-1.14;57.02
68456;BME280;55437;55.046;38.838;2023-02-07T01:26:13;101817.78;;;-1.19;56.80
68456;BME280;55437;55.046;38.838;2023-02-07T01:28:39;101814.69;;;-1.31;57.47
68456;BME280;55437;55.046;38.838;2023-02-07T01:31:07;101820.09;;;-1.23;56.88
68456;BME280;55437;55.046;38.838;2023-02-07T01:33:33;101819.03;;;-1.11;56.96
68456;BME280;55437;55.046;38.838;2023-02-07T01:36:07;101819.50;;;-1.00;56.76
68456;BME280;55437;55.046;38.838;2023-02-07T01:38:33;101831.47;;;-1.14;56.66
68456;BME280;55437;55.046;38.838;2023-02-07T01:40:59;101830.53;;;-1.16;56.76
68456;BME280;55437;55.046;38.838;2023-02-07T01:43:27;101833.56;;;-1.23;57.33
68456;BME280;55437;55.046;38.838;2023-02-07T01:45:52;101829.59;;;-1.18;57.05
68456;BME280;55437;55.046;38.838;2023-02-07T01:48:24;101830.94;;;-1.06;56.83
68456;BME280;55437;55.046;38.838;2023-02-07T01:50:54;101842.25;;;-1.16;57.14
68456;BME280;55437;55.046;38.838;2023-02-07T01:53:23;101846.16;;;-1.23;57.22
68456;BME280;55437;55.046;38.838;2023-02-07T01:55:53;101843.41;;;-1.27;57.23
68456;BME280;55437;55.046;38.838;2023-02-07T01:58:21;101841.31;;;-1.18;57.02
68456;BME280;55437;55.046;38.838;2023-02-07T02:00:49;101845.31;;;-1.23;57.03
68456;BME280;55437;55.046;38.838;2023-02-07T02:03:15;101843.22;;;-1.14;56.91
68456;BME280;55437;55.046;38.838;2023-02-07T02:05:41;101846.94;;;-1.06;57.04
68456;BME280;55437;55.046;38.838;2023-02-07T02:08:08;101842.28;;;-0.98;56.78
68456;BME280;55437;55.046;38.838;2023-02-07T02:13:47;101837.84;;;-1.20;56.98
68456;BME280;55437;55.046;38.838;2023-02-07T02:23:14;101843.94;;;-1.34;58.04
68456;BME280;55437;55.046;38.838;2023-02-07T02:39:18;101866.28;;;-1.91;59.59
68456;BME280;55437;55.046;38.838;2023-02-07T02:44:22;101866.06;;;-2.11;59.87
68456;BME280;55437;55.046;38.838;2023-02-07T02:46:53;101876.13;;;-2.11;59.21
68456;BME280;55437;55.046;38.838;2023-02-07T02:49:20;101882.66;;;-2.15;59.51
68456;BME280;55437;55.046;38.838;2023-02-07T02:51:51;101885.03;;;-2.18;59.53
68456;BME280;55437;55.046;38.838;2023-02-07T02:54:32;101899.72;;;-2.26;59.84
68456;BME280;55437;55.046;38.838;2023-02-07T02:57:40;101901.00;;;-2.48;59.78
68456;BME280;55437;55.046;38.838;2023-02-07T03:00:28;101902.16;;;-2.58;60.36
68456;BME280;55437;55.046;38.838;2023-02-07T03:03:14;101906.66;;;-2.53;60.16
68456;BME280;55437;55.046;38.838;2023-02-07T03:08:40;101908.38;;;-2.51;59.83
68456;BME280;55437;55.046;38.838;2023-02-07T03:11:13;101907.50;;;-2.52;59.92
68456;BME280;55437;55.046;38.838;2023-02-07T03:14:42;101911.97;;;-2.63;59.56
68456;BME280;55437;55.046;38.838;2023-02-07T03:19:38;101923.03;;;-2.90;60.25
68456;BME280;55437;55.046;38.838;2023-02-07T03:22:09;101924.50;;;-2.94;60.43
68456;BME280;55437;55.046;38.838;2023-02-07T03:24:44;101924.25;;;-2.98;60.22
68456;BME280;55437;55.046;38.838;2023-02-07T03:27:15;101924.69;;;-3.05;60.27
68456;BME280;55437;55.046;38.838;2023-02-07T03:29:45;101937.94;;;-3.08;59.52
68456;BME280;55437;55.046;38.838;2023-02-07T03:32:13;101947.38;;;-3.33;59.83
68456;BME280;55437;55.046;38.838;2023-02-07T03:34:54;101956.03;;;-3.43;59.65
68456;BME280;55437;55.046;38.838;2023-02-07T03:37:26;101955.91;;;-3.59;59.79
68456;BME280;55437;55.046;38.838;2023-02-07T03:39:53;101957.03;;;-3.54;59.36
68456;BME280;55437;55.046;38.838;2023-02-07T03:42:27;101959.41;;;-3.42;58.86
68456;BME280;55437;55.046;38.838;2023-02-07T03:44:57;101964.19;;;-3.32;58.52
68456;BME280;55437;55.046;38.838;2023-02-07T03:47:25;101964.09;;;-3.34;58.16
68456;BME280;55437;55.046;38.838;2023-02-07T03:49:51;101959.66;;;-3.52;58.89
68456;BME280;55437;55.046;38.838;2023-02-07T03:52:17;101960.03;;;-3.59;59.20
68456;BME280;55437;55.046;38.838;2023-02-07T03:54:42;101960.66;;;-3.64;58.73
68456;BME280;55437;55.046;38.838;2023-02-07T03:57:08;101959.94;;;-3.76;59.10
68456;BME280;55437;55.046;38.838;2023-02-07T03:59:34;101968.59;;;-3.71;58.84
68456;BME280;55437;55.046;38.838;2023-02-07T04:01:59;101979.44;;;-3.85;58.95
68456;BME280;55437;55.046;38.838;2023-02-07T04:04:27;101978.31;;;-3.90;59.22
68456;BME280;55437;55.046;38.838;2023-02-07T04:06:52;101986.94;;;-4.00;59.71
68456;BME280;55437;55.046;38.838;2023-02-07T04:09:18;101988.34;;;-3.90;59.40
68456;BME280;55437;55.046;38.838;2023-02-07T04:11:47;101993.81;;;-3.82;58.73
68456;BME280;55437;55.046;38.838;2023-02-07T04:14:13;101992.63;;;-4.02;59.64
68456;BME280;55437;55.046;38.838;2023-02-07T04:16:39;101999.97;;;-4.05;59.48
68456;BME280;55437;55.046;38.838;2023-02-07T04:19:05;101997.66;;;-4.02;59.08
68456;BME280;55437;55.046;38.838;2023-02-07T04:21:30;102012.84;;;-3.86;59.00
68456;BME280;55437;55.046;38.838;2023-02-07T04:23:56;102031.00;;;-3.77;59.21
68456;BME280;55437;55.046;38.838;2023-02-07T04:26:22;102036.47;;;-3.69;58.90
68456;BME280;55437;55.046;38.838;2023-02-07T04:28:47;102046.31;;;-3.72;59.20
68456;BME280;55437;55.046;38.838;2023-02-07T04:31:13;102046.31;;;-3.72;59.29
68456;BME280;55437;55.046;38.838;2023-02-07T04:33:39;102043.34;;;-3.80;59.36
68456;BME280;55437;55.046;38.838;2023-02-07T04:36:05;102049.09;;;-3.68;59.24
68456;BME280;55437;55.046;38.838;2023-02-07T04:38:31;102048.31;;;-3.53;59.20
68456;BME280;55437;55.046;38.838;2023-02-07T04:40:58;102052.66;;;-3.51;58.60
68456;BME280;55437;55.046;38.838;2023-02-07T04:43:25;102055.19;;;-3.64;58.82
68456;BME280;55437;55.046;38.838;2023-02-07T04:45:51;102061.81;;;-3.51;58.54
68456;BME280;55437;55.046;38.838;2023-02-07T04:48:16;102069.72;;;-3.45;58.83
68456;BME280;55437;55.046;38.838;2023-02-07T04:50:42;102070.34;;;-3.35;58.33
68456;BME280;55437;55.046;38.838;2023-02-07T04:53:08;102074.00;;;-3.30;57.94
68456;BME280;55437;55.046;38.838;2023-02-07T04:55:33;102077.19;;;-3.32;58.18
68456;BME280;55437;55.046;38.838;2023-02-07T04:58:03;102077.94;;;-3.20;57.99
68456;BME280;55437;55.046;38.838;2023-02-07T05:00:28;102087.19;;;-3.19;58.08
68456;BME280;55437;55.046;38.838;2023-02-07T05:02:54;102087.28;;;-3.17;57.53
68456;BME280;55437;55.046;38.838;2023-02-07T05:05:20;102084.09;;;-3.15;57.76
68456;BME280;55437;55.046;38.838;2023-02-07T05:07:46;102093.81;;;-3.06;56.93
68456;BME280;55437;55.046;38.838;2023-02-07T05:10:11;102106.28;;;-3.08;57.52
68456;BME280;55437;55.046;38.838;2023-02-07T05:12:37;102109.47;;;-3.10;57.87
68456;BME280;55437;55.046;38.838;2023-02-07T05:15:03;102122.28;;;-3.20;57.60
68456;BME280;55437;55.046;38.838;2023-02-07T05:17:29;102126.44;;;-3.21;57.89
68456;BME280;55437;55.046;38.838;2023-02-07T05:20:03;102125.66;;;-3.20;57.58
68456;BME280;55437;55.046;38.838;2023-02-07T05:22:28;102133.28;;;-3.18;57.48
68456;BME280;55437;55.046;38.838;2023-02-07T05:24:54;102134.38;;;-3.28;57.59
68456;BME280;55437;55.046;38.838;2023-02-07T05:27:20;102145.72;;;-3.48;57.52
68456;BME280;55437;55.046;38.838;2023-02-07T05:29:46;102154.53;;;-3.54;57.90
68456;BME280;55437;55.046;38.838;2023-02-07T05:32:13;102161.28;;;-3.40;58.24
68456;BME280;55437;55.046;38.838;2023-02-07T05:34:57;102164.75;;;-3.10;57.60
68456;BME280;55437;55.046;38.838;2023-02-07T05:37:23;102171.94;;;-2.88;56.83
68456;BME280;55437;55.046;38.838;2023-02-07T05:39:49;102167.75;;;-2.60;56.13
68456;BME280;55437;55.046;38.838;2023-02-07T05:42:15;102183.84;;;-2.29;55.75
68456;BME280;55437;55.046;38.838;2023-02-07T05:44:41;102181.59;;;-2.09;55.25
68456;BME280;55437;55.046;38.838;2023-02-07T05:47:07;102183.53;;;-2.05;54.92
68456;BME280;55437;55.046;38.838;2023-02-07T05:49:33;102179.06;;;-2.39;55.27
68456;BME280;55437;55.046;38.838;2023-02-07T05:51:59;102185.31;;;-2.32;55.27
68456;BME280;55437;55.046;38.838;2023-02-07T05:54:24;102189.16;;;-2.09;55.29
68456;BME280;55437;55.046;38.838;2023-02-07T05:56:50;102196.34;;;-1.86;54.66
68456;BME280;55437;55.046;38.838;2023-02-07T05:59:16;102194.69;;;-1.86;54.28
68456;BME280;55437;55.046;38.838;2023-02-07T06:01:42;102186.53;;;-2.11;54.84
68456;BME280;55437;55.046;38.838;2023-02-07T06:04:07;102188.16;;;-2.41;54.74
68456;BME280;55437;55.046;38.838;2023-02-07T06:06:33;102193.78;;;-2.60;55.03
68456;BME280;55437;55.046;38.838;2023-02-07T06:09:01;102193.00;;;-2.59;55.11
68456;BME280;55437;55.046;38.838;2023-02-07T06:11:27;102187.59;;;-2.65;54.99
68456;BME280;55437;55.046;38.838;2023-02-07T06:13:52;102186.72;;;-2.65;55.22
68456;BME280;55437;55.046;38.838;2023-02-07T06:16:18;102182.41;;;-2.68;54.82
68456;BME280;55437;55.046;38.838;2023-02-07T06:18:44;102185.94;;;-2.64;55.01
68456;BME280;55437;55.046;38.838;2023-02-07T06:21:10;102193.75;;;-2.74;55.10
68456;BME280;55437;55.046;38.838;2023-02-07T06:23:35;102191.16;;;-2.61;54.95
68456;BME280;55437;55.046;38.838;2023-02-07T06:26:01;102195.88;;;-2.38;54.23
68456;BME280;55437;55.046;38.838;2023-02-07T06:28:27;102194.44;;;-2.34;54.35
68456;BME280;55437;55.046;38.838;2023-02-07T06:30:52;102201.22;;;-2.19;54.20
68456;BME280;55437;55.046;38.838;2023-02-07T06:33:18;102200.34;;;-2.19;53.48
68456;BME280;55437;55.046;38.838;2023-02-07T06:35:44;102203.78;;;-2.17;53.59
68456;BME280;55437;55.046;38.838;2023-02-07T06:38:13;102206.94;;;-2.06;53.29
68456;BME280;55437;55.046;38.838;2023-02-07T06:40:40;102214.31;;;-2.09;53.37
68456;BME280;55437;55.046;38.838;2023-02-07T06:43:06;102213.03;;;-2.17;53.50
68456;BME280;55437;55.046;38.838;2023-02-07T06:45:32;102219.78;;;-2.02;53.11
68456;BME280;55437;55.046;38.838;2023-02-07T06:47:58;102222.22;;;-1.89;52.95
68456;BME280;55437;55.046;38.838;2023-02-07T06:50:24;102223.50;;;-1.81;52.65
68456;BME280;55437;55.046;38.838;2023-02-07T06:52:49;102215.84;;;-1.67;52.32
68456;BME280;55437;55.046;38.838;2023-02-07T06:55:15;102219.31;;;-1.51;52.21
68456;BME280;55437;55.046;38.838;2023-02-07T06:57:41;102222.81;;;-1.32;51.90
68456;BME280;55437;55.046;38.838;2023-02-07T07:00:07;102221.88;;;-1.03;51.57
68456;BME280;55437;55.046;38.838;2023-02-07T07:02:33;102222.97;;;-0.82;50.71
68456;BME280;55437;55.046;38.838;2023-02-07T07:04:59;102226.38;;;-0.33;50.40
68456;BME280;55437;55.046;38.838;2023-02-07T07:07:25;102228.63;;;-0.05;49.70
68456;BME280;55437;55.046;38.838;2023-02-07T07:09:51;102235.84;;;0.05;49.31
68456;BME280;55437;55.046;38.838;2023-02-07T07:12:16;102243.66;;;0.10;49.32
68456;BME280;55437;55.046;38.838;2023-02-07T07:14:42;102234.16;;;0.40;48.76
68456;BME280;55437;55.046;38.838;2023-02-07T07:17:08;102243.69;;;0.81;47.95
68456;BME280;55437;55.046;38.838;2023-02-07T07:19:34;102245.09;;;1.30;47.00
68456;BME280;55437;55.046;38.838;2023-02-07T07:21:59;102245.47;;;1.78;46.37
68456;BME280;55437;55.046;38.838;2023-02-07T07:24:25;102252.44;;;2.03;45.74
68456;BME280;55437;55.046;38.838;2023-02-07T07:26:51;102260.28;;;2.50;45.32
68456;BME280;55437;55.046;38.838;2023-02-07T07:29:18;102256.44;;;2.82;44.33
68456;BME280;55437;55.046;38.838;2023-02-07T07:31:44;102257.00;;;3.20;43.59
68456;BME280;55437;55.046;38.838;2023-02-07T07:34:11;102257.97;;;3.46;43.13
68456;BME280;55437;55.046;38.838;2023-02-07T07:36:37;102244.06;;;3.60;42.80
68456;BME280;55437;55.046;38.838;2023-02-07T07:39:03;102260.69;;;3.76;42.08
68456;BME280;55437;55.046;38.838;2023-02-07T07:41:29;102259.72;;;3.96;41.71
68456;BME280;55437;55.046;38.838;2023-02-07T07:43:55;102261.53;;;4.00;41.31
68456;BME280;55437;55.046;38.838;2023-02-07T07:46:21;102253.81;;;4.22;41.03
68456;BME280;55437;55.046;38.838;2023-02-07T07:48:46;102250.03;;;4.37;40.70
68456;BME280;55437;55.046;38.838;2023-02-07T07:51:12;102250.06;;;4.38;40.47
68456;BME280;55437;55.046;38.838;2023-02-07T07:53:38;102258.97;;;4.51;40.16
68456;BME280;55437;55.046;38.838;2023-02-07T07:56:04;102258.16;;;4.52;39.86
68456;BME280;55437;55.046;38.838;2023-02-07T07:58:30;102265.78;;;4.52;39.47
68456;BME280;55437;55.046;38.838;2023-02-07T08:00:56;102278.50;;;4.52;39.45
68456;BME280;55437;55.046;38.838;2023-02-07T08:03:22;102267.50;;;4.53;39.46
68456;BME280;55437;55.046;38.838;2023-02-07T08:05:48;102275.78;;;4.46;39.01
68456;BME280;55437;55.046;38.838;2023-02-07T08:08:15;102269.78;;;4.44;39.02
68456;BME280;55437;55.046;38.838;2023-02-07T08:10:45;102267.59;;;4.56;38.91
68456;BME280;55437;55.046;38.838;2023-02-07T08:13:11;102265.94;;;4.56;38.81
68456;BME280;55437;55.046;38.838;2023-02-07T08:15:37;102265.22;;;4.35;38.72
68456;BME280;55437;55.046;38.838;2023-02-07T08:18:04;102265.56;;;3.93;38.67
68456;BME280;55437;55.046;38.838;2023-02-07T08:20:30;102267.69;;;3.57;38.88
68456;BME280;55437;55.046;38.838;2023-02-07T08:22:56;102273.75;;;3.15;39.24
68456;BME280;55437;55.046;38.838;2023-02-07T08:25:29;102279.19;;;3.02;39.35
68456;BME280;55437;55.046;38.838;2023-02-07T08:27:54;102286.22;;;2.86;39.90
68456;BME280;55437;55.046;38.838;2023-02-07T08:30:20;102290.69;;;2.71;39.87
68456;BME280;55437;55.046;38.838;2023-02-07T08:32:46;102295.84;;;2.52;40.04
68456;BME280;55437;55.046;38.838;2023-02-07T08:35:12;102301.59;;;2.27;40.64
68456;BME280;55437;55.046;38.838;2023-02-07T08:37:38;102302.00;;;2.17;41.16
68456;BME280;55437;55.046;38.838;2023-02-07T08:40:04;102301.88;;;2.14;41.07
68456;BME280;55437;55.046;38.838;2023-02-07T08:42:30;102296.16;;;1.99;41.31
68456;BME280;55437;55.046;38.838;2023-02-07T08:44:56;102289.72;;;1.86;41.54
68456;BME280;55437;55.046;38.838;2023-02-07T08:47:25;102282.31;;;1.71;41.68
68456;BME280;55437;55.046;38.838;2023-02-07T08:49:53;102277.00;;;1.65;41.73
68456;BME280;55437;55.046;38.838;2023-02-07T08:52:19;102278.47;;;1.60;42.32
68456;BME280;55437;55.046;38.838;2023-02-07T08:54:44;102281.31;;;1.49;42.58
68456;BME280;55437;55.046;38.838;2023-02-07T08:57:10;102280.53;;;1.50;42.40
68456;BME280;55437;55.046;38.838;2023-02-07T08:59:36;102282.81;;;1.43;42.55
68456;BME280;55437;55.046;38.838;2023-02-07T09:02:01;102289.63;;;1.27;43.17
68456;BME280;55437;55.046;38.838;2023-02-07T09:04:27;102279.97;;;1.18;43.45
68456;BME280;55437;55.046;38.838;2023-02-07T09:06:53;102288.63;;;1.23;43.70
68456;BME280;55437;55.046;38.838;2023-02-07T09:09:22;102287.75;;;1.23;43.83
68456;BME280;55437;55.046;38.838;2023-02-07T09:11:49;102279.28;;;1.22;43.75
68456;BME280;55437;55.046;38.838;2023-02-07T09:14:15;102290.03;;;1.17;43.93
68456;BME280;55437;55.046;38.838;2023-02-07T09:16:41;102295.81;;;1.14;43.78
68456;BME280;55437;55.046;38.838;2023-02-07T09:19:07;102300.00;;;1.14;44.12
68456;BME280;55437;55.046;38.838;2023-02-07T09:21:32;102295.00;;;1.15;44.21
68456;BME280;55437;55.046;38.838;2023-02-07T09:23:58;102296.75;;;1.16;44.18
68456;BME280;55437;55.046;38.838;2023-02-07T09:26:26;102302.81;;;1.20;44.22
68456;BME280;55437;55.046;38.838;2023-02-07T09:28:52;102300.31;;;1.21;43.94
68456;BME280;55437;55.046;38.838;2023-02-07T09:31:18;102303.72;;;1.22;44.03
68456;BME280;55437;55.046;38.838;2023-02-07T09:33:43;102314.44;;;1.16;44.30
68456;BME280;55437;55.046;38.838;2023-02-07T09:36:23;102306.44;;;0.89;44.59
68456;BME280;55437;55.046;38.838;2023-02-07T09:38:50;102300.75;;;0.76;45.17
68456;BME280;55437;55.046;38.838;2023-02-07T09:44:56;102306.38;;;0.70;45.22
68456;BME280;55437;55.046;38.838;2023-02-07T09:47:25;102299.16;;;0.60;45.08
68456;BME280;55437;55.046;38.838;2023-02-07T09:50:36;102305.22;;;0.63;45.28
68456;BME280;55437;55.046;38.838;2023-02-07T09:53:16;102307.88;;;0.49;45.25
68456;BME280;55437;55.046;38.838;2023-02-07T09:55:58;102298.50;;;0.46;45.70
68456;BME280;55437;55.046;38.838;2023-02-07T10:01:04;102286.84;;;0.50;45.60
68456;BME280;55437;55.046;38.838;2023-02-07T10:03:35;102282.81;;;0.53;45.76
68456;BME280;55437;55.046;38.838;2023-02-07T10:06:22;102280.94;;;0.49;45.55
68456;BME280;55437;55.046;38.838;2023-02-07T10:08:53;102277.63;;;0.50;45.60
68456;BME280;55437;55.046;38.838;2023-02-07T10:17:28;102276.25;;;0.57;45.47
68456;BME280;55437;55.046;38.838;2023-02-07T10:20:25;102277.91;;;0.56;45.64
68456;BME280;55437;55.046;38.838;2023-02-07T10:30:46;102278.75;;;0.39;46.27
68456;BME280;55437;55.046;38.838;2023-02-07T10:33:17;102280.06;;;0.49;46.14
68456;BME280;55437;55.046;38.838;2023-02-07T10:35:50;102291.34;;;0.55;46.22
68456;BME280;55437;55.046;38.838;2023-02-07T10:41:05;102287.22;;;0.40;46.25
68456;BME280;55437;55.046;38.838;2023-02-07T10:43:35;102282.16;;;0.40;46.34
68456;BME280;55437;55.046;38.838;2023-02-07T10:46:03;102286.50;;;0.42;46.14
68456;BME280;55437;55.046;38.838;2023-02-07T10:48:32;102277.63;;;0.50;46.02
68456;BME280;55437;55.046;38.838;2023-02-07T10:50:59;102273.72;;;0.57;46.14
68456;BME280;55437;55.046;38.838;2023-02-07T10:53:43;102277.78;;;0.53;46.08
68456;BME280;55437;55.046;38.838;2023-02-07T10:56:21;102274.81;;;0.44;46.07
68456;BME280;55437;55.046;38.838;2023-02-07T10:58:48;102284.06;;;0.44;46.29
68456;BME280;55437;55.046;38.838;2023-02-07T11:01:20;102284.19;;;0.47;46.18
68456;BME280;55437;55.046;38.838;2023-02-07T11:03:48;102277.06;;;0.56;46.18
68456;BME280;55437;55.046;38.838;2023-02-07T11:06:15;102289.78;;;0.57;45.84
68456;BME280;55437;55.046;38.838;2023-02-07T11:08:48;102282.59;;;0.49;45.85
68456;BME280;55437;55.046;38.838;2023-02-07T11:11:30;102290.41;;;0.53;45.99
68456;BME280;55437;55.046;38.838;2023-02-07T11:14:03;102294.38;;;0.48;46.04
68456;BME280;55437;55.046;38.838;2023-02-07T11:16:32;102307.38;;;0.56;45.85
68456;BME280;55437;55.046;38.838;2023-02-07T11:19:02;102299.00;;;0.57;45.70
68456;BME280;55437;55.046;38.838;2023-02-07T11:21:34;102302.97;;;0.52;45.60
68456;BME280;55437;55.046;38.838;2023-02-07T11:24:07;102297.84;;;0.50;45.77
68456;BME280;55437;55.046;38.838;2023-02-07T11:26:40;102311.56;;;0.55;45.53
68456;BME280;55437;55.046;38.838;2023-02-07T11:29:14;102302.19;;;0.53;45.73
68456;BME280;55437;55.046;38.838;2023-02-07T11:31:43;102306.28;;;0.51;45.49
68456;BME280;55437;55.046;38.838;2023-02-07T11:36:52;102308.13;;;0.37;45.92
68456;BME280;55437;55.046;38.838;2023-02-07T11:39:21;102316.53;;;0.36;45.84
68456;BME280;55437;55.046;38.838;2023-02-07T11:41:58;102314.81;;;0.35;46.03
68456;BME280;55437;55.046;38.838;2023-02-07T11:44:29;102310.53;;;0.34;45.76
68456;BME280;55437;55.046;38.838;2023-02-07T11:47:02;102310.66;;;0.37;45.45
68456;BME280;55437;55.046;38.838;2023-02-07T11:49:50;102314.72;;;0.33;45.61
68456;BME280;55437;55.046;38.838;2023-02-07T11:52:17;102312.81;;;0.29;45.46
68456;BME280;55437;55.046;38.838;2023-02-07T11:54:49;102315.78;;;0.21;45.71
68456;BME280;55437;55.046;38.838;2023-02-07T11:57:16;102311.81;;;0.26;45.88
68456;BME280;55437;55.046;38.838;2023-02-07T11:59:47;102317.44;;;0.20;45.76
68456;BME280;55437;55.046;38.838;2023-02-07T12:02:24;102320.38;;;0.12;45.81
68456;BME280;55437;55.046;38.838;2023-02-07T12:04:52;102322.75;;;0.09;46.12
68456;BME280;55437;55.046;38.838;2023-02-07T12:07:30;102327.72;;;0.07;46.07
68456;BME280;55437;55.046;38.838;2023-02-07T12:10:13;102326.84;;;0.23;45.93
68456;BME280;55437;55.046;38.838;2023-02-07T12:13:01;102329.66;;;0.13;46.03
68456;BME280;55437;55.046;38.838;2023-02-07T12:15:39;102334.44;;;0.07;46.15
68456;BME280;55437;55.046;38.838;2023-02-07T12:23:51;102323.94;;;-0.17;46.93
68456;BME280;55437;55.046;38.838;2023-02-07T12:29:24;102315.81;;;-0.12;46.83
68456;BME280;55437;55.046;38.838;2023-02-07T12:34:40;102321.00;;;-0.09;46.93
68456;BME280;55437;55.046;38.838;2023-02-07T12:42:57;102335.53;;;-0.21;47.42
68456;BME280;55437;55.046;38.838;2023-02-07T13:07:55;102363.53;;;-0.80;49.52
68456;BME280;55437;55.046;38.838;2023-02-07T13:16:36;102367.75;;;-0.64;48.69
68456;BME280;55437;55.046;38.838;2023-02-07T13:19:36;102368.16;;;-0.56;48.69
68456;BME280;55437;55.046;38.838;2023-02-07T13:24:39;102359.19;;;-0.51;48.54
68456;BME280;55437;55.046;38.838;2023-02-07T13:27:12;102364.59;;;-0.60;48.85
68456;BME280;55437;55.046;38.838;2023-02-07T13:29:43;102362.16;;;-0.58;48.78
68456;BME280;55437;55.046;38.838;2023-02-07T13:32:22;102358.28;;;-0.68;49.03
68456;BME280;55437;55.046;38.838;2023-02-07T13:37:57;102380.38;;;-0.64;49.17
68456;BME280;55437;55.046;38.838;2023-02-07T13:40:49;102376.63;;;-0.70;49.29
68456;BME280;55437;55.046;38.838;2023-02-07T13:49:00;102376.44;;;-0.90;49.99
68456;BME280;55437;55.046;38.838;2023-02-07T13:56:59;102381.28;;;-0.93;49.99
68456;BME280;55437;55.046;38.838;2023-02-07T14:02:52;102385.84;;;-1.02;50.57
68456;BME280;55437;55.046;38.838;2023-02-07T14:05:32;102397.75;;;-0.99;50.36
68456;BME280;55437;55.046;38.838;2023-02-07T14:08:04;102393.91;;;-1.08;50.55
68456;BME280;55437;55.046;38.838;2023-02-07T14:21:19;102381.06;;;-1.41;50.96
68456;BME280;55437;55.046;38.838;2023-02-07T14:37:48;102401.91;;;-1.59;51.18
68456;BME280;55437;55.046;38.838;2023-02-07T14:42:57;102397.53;;;-1.76;51.67
68456;BME280;55437;55.046;38.838;2023-02-07T14:45:24;102401.94;;;-1.87;51.54
68456;BME280;55437;55.046;38.838;2023-02-07T14:47:53;102404.25;;;-1.90;51.87
68456;BME280;55437;55.046;38.838;2023-02-07T14:50:22;102406.53;;;-1.94;51.98
68456;BME280;55437;55.046;38.838;2023-02-07T14:52:54;102405.28;;;-2.01;52.12
68456;BME280;55437;55.046;38.838;2023-02-07T14:55:27;102403.28;;;-2.06;51.89
68456;BME280;55437;55.046;38.838;2023-02-07T15:00:27;102407.94;;;-2.12;51.82
68456;BME280;55437;55.046;38.838;2023-02-07T15:03:17;102413.84;;;-2.25;52.68
68456;BME280;55437;55.046;38.838;2023-02-07T15:05:49;102413.41;;;-2.33;52.72
68456;BME280;55437;55.046;38.838;2023-02-07T15:08:21;102419.00;;;-2.37;52.11
68456;BME280;55437;55.046;38.838;2023-02-07T15:11:14;102422.91;;;-2.42;52.70
68456;BME280;55437;55.046;38.838;2023-02-07T15:13:42;102416.81;;;-2.45;52.07
68456;BME280;55437;55.046;38.838;2023-02-07T15:16:16;102419.03;;;-2.50;52.70
68456;BME280;55437;55.046;38.838;2023-02-07T15:18:46;102410.94;;;-2.59;52.88
68456;BME280;55437;55.046;38.838;2023-02-07T15:21:32;102416.16;;;-2.69;52.74
68456;BME280;55437;55.046;38.838;2023-02-07T15:24:04;102415.09;;;-2.73;52.82
68456;BME280;55437;55.046;38.838;2023-02-07T15:26:31;102415.50;;;-2.80;53.05